createdAt,value
2016-12-16T00:00:41.666Z,1016.13
2016-12-16T00:02:15.993Z,1016.14
2016-12-16T00:03:49.603Z,1016.14
2016-12-16T00:05:23.204Z,1016.19
2016-12-16T00:06:57.226Z,1016.17
2016-12-16T00:08:31.106Z,1016.16
2016-12-16T00:10:04.636Z,1016.22
2016-12-16T00:11:38.632Z,1016.17
2016-12-16T00:13:08.598Z,1016.14
2016-12-16T00:14:42.275Z,1016.14
2016-12-16T00:16:16.441Z,1016.14
2016-12-16T00:17:50.464Z,1016.2
2016-12-16T00:19:23.814Z,1016.16
2016-12-16T00:20:57.102Z,1016.19
2016-12-16T00:22:53.757Z,1016.18
2016-12-16T00:24:32.330Z,1016.23
2016-12-16T00:26:30.884Z,1016.12
2016-12-16T00:28:10.912Z,1016.16
2016-12-16T00:30:08.231Z,1016.18
2016-12-16T00:31:42.380Z,1016.23
2016-12-16T00:33:16.023Z,1016.19
2016-12-16T00:34:49.896Z,1016.22
2016-12-16T00:36:23.457Z,1016.26
2016-12-16T00:37:57.426Z,1016.24
2016-12-16T00:39:31.649Z,1016.22
2016-12-16T00:41:05.160Z,1016.24
2016-12-16T00:42:39.352Z,1016.25
2016-12-16T00:44:13.000Z,1016.21
2016-12-16T00:45:47.115Z,1016.22
2016-12-16T00:47:20.425Z,1016.2
2016-12-16T00:49:14.225Z,1016.26
2016-12-16T00:50:44.303Z,1016.23
2016-12-16T00:51:58.443Z,1016.25
2016-12-16T00:53:32.255Z,1016.22
2016-12-16T00:55:25.035Z,1016.25
2016-12-16T00:56:58.528Z,1016.21
2016-12-16T00:58:32.698Z,1016.26
2016-12-16T01:00:06.818Z,1016.3
2016-12-16T01:01:40.229Z,1016.33
2016-12-16T01:03:08.776Z,1016.35
2016-12-16T01:04:22.894Z,1016.4
2016-12-16T01:06:15.858Z,1016.41
2016-12-16T01:07:49.164Z,1016.41
2016-12-16T01:09:22.679Z,1016.43
2016-12-16T01:10:56.004Z,1016.4
2016-12-16T01:12:29.451Z,1016.43
2016-12-16T01:14:03.238Z,1016.42
2016-12-16T01:15:36.596Z,1016.39
2016-12-16T01:17:10.506Z,1016.42
2016-12-16T01:18:43.854Z,1016.44
2016-12-16T01:20:17.421Z,1016.45
2016-12-16T01:21:51.003Z,1016.42
2016-12-16T01:23:24.587Z,1016.46
2016-12-16T01:24:57.961Z,1016.45
2016-12-16T01:26:31.469Z,1016.48
2016-12-16T01:28:05.357Z,1016.5
2016-12-16T01:29:38.706Z,1016.48
2016-12-16T01:31:12.021Z,1016.49
2016-12-16T01:32:45.563Z,1016.52
2016-12-16T01:34:19.340Z,1016.56
2016-12-16T01:36:14.235Z,1016.55
2016-12-16T01:37:47.996Z,1016.48
2016-12-16T01:39:21.252Z,1016.56
2016-12-16T01:40:55.078Z,1016.55
2016-12-16T01:42:28.380Z,1016.57
2016-12-16T01:44:01.656Z,1016.62
2016-12-16T01:45:35.597Z,1016.61
2016-12-16T01:47:09.112Z,1016.67
2016-12-16T01:48:42.769Z,1016.55
2016-12-16T01:50:16.182Z,1016.62
2016-12-16T01:51:50.187Z,1016.61
2016-12-16T01:53:23.776Z,1016.61
2016-12-16T01:54:57.044Z,1016.65
2016-12-16T01:56:31.006Z,1016.62
2016-12-16T01:58:04.571Z,1016.62
2016-12-16T01:59:38.031Z,1016.53
2016-12-16T02:01:31.310Z,1016.55
2016-12-16T02:04:47.088Z,1016.53
2016-12-16T02:06:20.380Z,1016.52
2016-12-16T02:07:53.696Z,1016.55
2016-12-16T02:09:27.209Z,1016.52
2016-12-16T02:11:19.997Z,1016.51
2016-12-16T02:12:53.610Z,1016.55
2016-12-16T02:14:26.898Z,1016.55
2016-12-16T02:15:56.985Z,1016.51
2016-12-16T02:17:11.304Z,1016.52
2016-12-16T02:18:44.681Z,1016.53
2016-12-16T02:20:37.771Z,1016.51
2016-12-16T02:22:11.452Z,1016.5
2016-12-16T02:23:44.795Z,1016.56
2016-12-16T02:25:18.658Z,1016.48
2016-12-16T02:26:52.176Z,1016.43
2016-12-16T02:28:26.471Z,1016.49
2016-12-16T02:30:00.380Z,1016.45
2016-12-16T02:31:33.886Z,1016.45
2016-12-16T02:33:07.104Z,1016.41
2016-12-16T02:34:41.411Z,1016.39
2016-12-16T02:36:15.220Z,1016.4
2016-12-16T02:37:48.753Z,1016.36
2016-12-16T02:39:22.014Z,1016.4
2016-12-16T02:40:55.367Z,1016.42
2016-12-16T02:42:29.904Z,1016.43
2016-12-16T02:44:23.052Z,1016.44
2016-12-16T02:45:56.342Z,1016.39
2016-12-16T02:47:30.254Z,1016.43
2016-12-16T02:49:03.742Z,1016.42
2016-12-16T02:50:37.529Z,1016.45
2016-12-16T02:52:38.317Z,1016.43
2016-12-16T02:54:12.242Z,1016.47
2016-12-16T02:55:45.767Z,1016.44
2016-12-16T02:57:19.083Z,1016.42
2016-12-16T02:58:52.879Z,1016.41
2016-12-16T03:00:26.784Z,1016.4
2016-12-16T03:02:00.029Z,1016.38
2016-12-16T03:03:33.578Z,1016.39
2016-12-16T03:05:07.182Z,1016.38
2016-12-16T03:06:41.270Z,1016.4
2016-12-16T03:08:15.329Z,1016.43
2016-12-16T03:09:48.551Z,1016.41
2016-12-16T03:11:22.604Z,1016.35
2016-12-16T03:12:56.162Z,1016.39
2016-12-16T03:14:51.558Z,1016.35
2016-12-16T03:16:24.865Z,1016.39
2016-12-16T03:17:58.676Z,1016.38
2016-12-16T03:19:32.355Z,1016.34
2016-12-16T03:21:05.859Z,1016.34
2016-12-16T03:22:39.423Z,1016.36
2016-12-16T03:24:12.996Z,1016.37
2016-12-16T03:25:46.925Z,1016.37
2016-12-16T03:27:50.200Z,1016.44
2016-12-16T03:29:50.819Z,1016.43
2016-12-16T03:31:33.329Z,1016.45
2016-12-16T03:33:33.333Z,1016.45
2016-12-16T03:35:05.817Z,1016.48
2016-12-16T03:36:42.212Z,1016.47
2016-12-16T03:38:15.478Z,1016.48
2016-12-16T03:39:49.188Z,1016.44
2016-12-16T03:41:22.440Z,1016.47
2016-12-16T03:43:15.915Z,1016.48
2016-12-16T03:44:49.495Z,1016.48
2016-12-16T03:46:22.810Z,1016.49
2016-12-16T03:47:52.345Z,1016.49
2016-12-16T03:49:06.652Z,1016.53
2016-12-16T03:50:40.691Z,1016.57
2016-12-16T03:52:34.239Z,1016.53
2016-12-16T03:54:07.476Z,1016.54
2016-12-16T03:55:41.076Z,1016.65
2016-12-16T03:57:14.885Z,1016.55
2016-12-16T03:58:48.128Z,1016.57
2016-12-16T04:00:22.007Z,1016.56
2016-12-16T04:01:56.815Z,1016.55
2016-12-16T04:03:30.389Z,1016.56
2016-12-16T04:05:03.888Z,1016.53
2016-12-16T04:06:37.495Z,1016.56
2016-12-16T04:08:10.805Z,1016.5
2016-12-16T04:09:44.426Z,1016.54
2016-12-16T04:11:17.929Z,1016.55
2016-12-16T04:12:51.594Z,1016.56
2016-12-16T04:14:25.125Z,1016.62
2016-12-16T04:15:53.575Z,1016.63
2016-12-16T04:17:21.671Z,1016.62
2016-12-16T04:18:54.961Z,1016.65
2016-12-16T04:20:28.730Z,1016.66
2016-12-16T04:22:02.371Z,1016.63
2016-12-16T04:23:35.618Z,1016.63
2016-12-16T04:25:09.200Z,1016.68
2016-12-16T04:26:43.353Z,1016.65
2016-12-16T04:28:16.906Z,1016.68
2016-12-16T04:29:50.182Z,1016.67
2016-12-16T04:31:18.450Z,1016.71
2016-12-16T04:32:52.949Z,1016.73
2016-12-16T04:34:26.256Z,1016.71
2016-12-16T04:35:59.806Z,1016.73
2016-12-16T04:37:33.137Z,1016.73
2016-12-16T04:39:07.055Z,1016.72
2016-12-16T04:40:41.249Z,1016.75
2016-12-16T04:42:15.169Z,1016.75
2016-12-16T04:43:48.874Z,1016.81
2016-12-16T04:45:22.710Z,1016.82
2016-12-16T04:46:56.278Z,1016.84
2016-12-16T04:48:29.633Z,1016.85
2016-12-16T04:50:03.069Z,1016.84
2016-12-16T04:51:36.818Z,1016.86
2016-12-16T04:53:13.027Z,1016.83
2016-12-16T04:54:46.345Z,1016.94
2016-12-16T04:56:19.882Z,1016.92
2016-12-16T04:57:53.782Z,1016.97
2016-12-16T04:59:46.536Z,1017.03
2016-12-16T05:01:19.859Z,1016.99
2016-12-16T05:02:53.227Z,1017
2016-12-16T05:04:27.071Z,1017.04
2016-12-16T05:06:00.299Z,1017.07
2016-12-16T05:07:33.887Z,1017.05
2016-12-16T05:09:07.211Z,1017.07
2016-12-16T05:10:41.162Z,1017.11
2016-12-16T05:12:15.100Z,1017.09
2016-12-16T05:13:48.999Z,1017.14
2016-12-16T05:15:22.367Z,1017.17
2016-12-16T05:16:56.349Z,1017.15
2016-12-16T05:18:29.624Z,1017.19
2016-12-16T05:20:03.250Z,1017.19
2016-12-16T05:21:36.803Z,1017.16
2016-12-16T05:23:10.788Z,1017.17
2016-12-16T05:24:44.078Z,1017.13
2016-12-16T05:26:19.216Z,1017.13
2016-12-16T05:28:12.371Z,1017.18
2016-12-16T05:29:45.943Z,1017.18
2016-12-16T05:31:19.855Z,1017.2
2016-12-16T05:32:53.432Z,1017.18
2016-12-16T05:34:27.622Z,1017.14
2016-12-16T05:36:02.091Z,1017.16
2016-12-16T05:37:36.091Z,1017.17
2016-12-16T05:39:10.892Z,1017.19
2016-12-16T05:40:44.347Z,1017.19
2016-12-16T05:42:18.125Z,1017.19
2016-12-16T05:44:11.489Z,1017.18
2016-12-16T05:45:44.896Z,1017.15
2016-12-16T05:47:18.192Z,1017.12
2016-12-16T05:48:51.940Z,1017.12
2016-12-16T05:50:21.408Z,1017.15
2016-12-16T05:51:35.531Z,1017.18
2016-12-16T05:53:10.717Z,1017.19
2016-12-16T05:55:03.821Z,1017.18
2016-12-16T05:56:38.148Z,1017.2
2016-12-16T05:58:11.437Z,1017.24
2016-12-16T05:59:45.059Z,1017.24
2016-12-16T06:01:18.861Z,1017.21
2016-12-16T06:02:53.069Z,1017.26
2016-12-16T06:04:26.853Z,1017.23
2016-12-16T06:06:00.537Z,1017.25
2016-12-16T06:07:34.130Z,1017.26
2016-12-16T06:09:07.663Z,1017.27
2016-12-16T06:10:40.954Z,1017.28
2016-12-16T06:12:14.469Z,1017.33
2016-12-16T06:13:48.114Z,1017.42
2016-12-16T06:15:41.349Z,1017.41
2016-12-16T06:17:14.711Z,1017.4
2016-12-16T06:18:48.906Z,1017.44
2016-12-16T06:20:22.548Z,1017.46
2016-12-16T06:21:56.503Z,1017.51
2016-12-16T06:23:57.222Z,1017.48
2016-12-16T06:25:30.831Z,1017.48
2016-12-16T06:27:04.136Z,1017.48
2016-12-16T06:28:38.388Z,1017.52
2016-12-16T06:29:52.766Z,1017.58
2016-12-16T06:31:47.571Z,1017.56
2016-12-16T06:33:21.956Z,1017.59
2016-12-16T06:34:55.463Z,1017.54
2016-12-16T06:36:29.089Z,1017.58
2016-12-16T06:38:03.313Z,1017.61
2016-12-16T06:39:36.585Z,1017.55
2016-12-16T06:41:10.126Z,1017.61
2016-12-16T06:42:43.867Z,1017.57
2016-12-16T06:44:17.427Z,1017.68
2016-12-16T06:45:51.071Z,1017.67
2016-12-16T06:47:24.355Z,1017.72
2016-12-16T06:48:58.030Z,1017.71
2016-12-16T06:50:31.719Z,1017.73
2016-12-16T06:52:05.216Z,1017.74
2016-12-16T06:53:38.564Z,1017.73
2016-12-16T06:55:31.852Z,1017.75
2016-12-16T06:57:05.399Z,1017.79
2016-12-16T06:58:39.151Z,1017.78
2016-12-16T07:00:12.829Z,1017.81
2016-12-16T07:01:46.828Z,1017.85
2016-12-16T07:03:20.787Z,1017.82
2016-12-16T07:04:54.348Z,1017.82
2016-12-16T07:06:27.713Z,1017.8
2016-12-16T07:08:01.449Z,1017.84
2016-12-16T07:09:35.460Z,1017.84
2016-12-16T07:11:09.634Z,1017.83
2016-12-16T07:12:43.431Z,1017.83
2016-12-16T07:14:16.932Z,1017.85
2016-12-16T07:15:50.763Z,1017.89
2016-12-16T07:17:24.107Z,1017.95
2016-12-16T07:19:17.999Z,1017.95
2016-12-16T07:20:51.326Z,1017.98
2016-12-16T07:22:25.223Z,1017.98
2016-12-16T07:23:58.884Z,1018.02
2016-12-16T07:25:32.516Z,1018
2016-12-16T07:27:06.202Z,1018.05
2016-12-16T07:28:39.870Z,1018.05
2016-12-16T07:30:13.177Z,1018.04
2016-12-16T07:31:46.787Z,1018.09
2016-12-16T07:33:20.883Z,1018.07
2016-12-16T07:34:54.408Z,1018.11
2016-12-16T07:36:27.999Z,1018.15
2016-12-16T07:38:01.908Z,1018.14
2016-12-16T07:39:35.177Z,1018.16
2016-12-16T07:41:08.668Z,1018.18
2016-12-16T07:42:42.253Z,1018.17
2016-12-16T07:44:15.843Z,1018.18
2016-12-16T07:46:08.338Z,1018.21
2016-12-16T07:47:40.019Z,1018.2
2016-12-16T07:49:22.278Z,1018.21
2016-12-16T07:50:58.520Z,1018.2
2016-12-16T07:52:58.057Z,1018.17
2016-12-16T07:54:31.961Z,1018.2
2016-12-16T07:56:05.239Z,1018.23
2016-12-16T07:57:38.834Z,1018.25
2016-12-16T07:59:13.477Z,1018.24
2016-12-16T08:01:07.233Z,1018.28
2016-12-16T08:02:41.670Z,1018.31
2016-12-16T08:04:15.208Z,1018.34
2016-12-16T08:05:49.457Z,1018.35
2016-12-16T08:07:24.031Z,1018.34
2016-12-16T08:08:57.408Z,1018.4
2016-12-16T08:10:28.046Z,1018.38
2016-12-16T08:12:01.865Z,1018.42
2016-12-16T08:13:35.630Z,1018.39
2016-12-16T08:15:09.902Z,1018.37
2016-12-16T08:16:43.814Z,1018.38
2016-12-16T08:18:19.660Z,1018.39
2016-12-16T08:20:13.187Z,1018.36
2016-12-16T08:21:46.734Z,1018.38
2016-12-16T08:23:20.255Z,1018.41
2016-12-16T08:24:50.342Z,1018.42
2016-12-16T08:26:04.400Z,1018.42
2016-12-16T08:27:38.104Z,1018.43
2016-12-16T08:29:31.097Z,1018.44
2016-12-16T08:31:04.740Z,1018.46
2016-12-16T08:32:38.067Z,1018.48
2016-12-16T08:34:11.376Z,1018.49
2016-12-16T08:35:45.416Z,1018.49
2016-12-16T08:37:19.987Z,1018.49
2016-12-16T08:38:53.856Z,1018.49
2016-12-16T08:40:27.288Z,1018.5
2016-12-16T08:42:00.856Z,1018.55
2016-12-16T08:43:35.292Z,1018.49
2016-12-16T08:45:09.808Z,1018.51
2016-12-16T08:46:43.472Z,1018.55
2016-12-16T08:48:16.799Z,1018.57
2016-12-16T08:49:50.847Z,1018.57
2016-12-16T08:51:43.387Z,1018.6
2016-12-16T08:53:17.086Z,1018.6
2016-12-16T08:54:47.824Z,1018.64
2016-12-16T08:56:02.474Z,1018.56
2016-12-16T08:57:55.080Z,1018.61
2016-12-16T08:59:30.026Z,1018.65
2016-12-16T09:01:03.307Z,1018.62
2016-12-16T09:02:37.169Z,1018.62
2016-12-16T09:04:10.851Z,1018.66
2016-12-16T09:05:44.286Z,1018.65
2016-12-16T09:07:17.684Z,1018.63
2016-12-16T09:08:51.502Z,1018.64
2016-12-16T09:10:24.757Z,1018.64
2016-12-16T09:11:53.438Z,1018.64
2016-12-16T09:13:27.104Z,1018.62
2016-12-16T09:15:01.109Z,1018.7
2016-12-16T09:16:34.808Z,1018.71
2016-12-16T09:18:08.712Z,1018.68
2016-12-16T09:19:42.455Z,1018.72
2016-12-16T09:21:15.978Z,1018.76
2016-12-16T09:23:17.157Z,1018.76
2016-12-16T09:24:51.228Z,1018.8
2016-12-16T09:26:24.796Z,1018.76
2016-12-16T09:27:58.227Z,1018.79
2016-12-16T09:29:31.795Z,1018.78
2016-12-16T09:31:05.703Z,1018.79
2016-12-16T09:32:39.668Z,1018.75
2016-12-16T09:34:13.057Z,1018.79
2016-12-16T09:35:46.870Z,1018.78
2016-12-16T09:37:21.118Z,1018.85
2016-12-16T09:39:14.564Z,1018.86
2016-12-16T09:40:48.160Z,1018.84
2016-12-16T09:42:21.586Z,1018.83
2016-12-16T09:43:54.879Z,1018.84
2016-12-16T09:45:28.826Z,1018.87
2016-12-16T09:47:02.760Z,1018.86
2016-12-16T09:48:38.899Z,1018.81
2016-12-16T09:50:12.194Z,1018.8
2016-12-16T09:51:45.787Z,1018.83
2016-12-16T09:53:19.390Z,1018.82
2016-12-16T09:54:53.141Z,1018.78
2016-12-16T09:56:26.716Z,1018.8
2016-12-16T09:58:00.066Z,1018.85
2016-12-16T09:59:33.926Z,1018.85
2016-12-16T10:01:26.724Z,1018.8
2016-12-16T10:03:00.296Z,1018.78
2016-12-16T10:04:34.271Z,1018.83
2016-12-16T10:06:07.867Z,1018.82
2016-12-16T10:07:41.290Z,1018.85
2016-12-16T10:09:14.527Z,1018.87
2016-12-16T10:10:48.129Z,1018.86
2016-12-16T10:12:21.980Z,1018.87
2016-12-16T10:13:55.389Z,1018.84
2016-12-16T10:15:28.670Z,1018.88
2016-12-16T10:17:02.020Z,1018.84
2016-12-16T10:18:36.691Z,1018.89
2016-12-16T10:20:10.780Z,1018.87
2016-12-16T10:21:44.491Z,1018.9
2016-12-16T10:23:18.179Z,1018.86
2016-12-16T10:24:51.993Z,1018.87
2016-12-16T10:26:45.283Z,1018.91
2016-12-16T10:28:18.696Z,1018.85
2016-12-16T10:29:52.560Z,1018.85
2016-12-16T10:31:26.587Z,1018.86
2016-12-16T10:33:01.625Z,1018.9
2016-12-16T10:34:35.281Z,1018.88
2016-12-16T10:36:10.072Z,1018.88
2016-12-16T10:37:43.971Z,1018.89
2016-12-16T10:39:18.038Z,1018.87
2016-12-16T10:40:53.119Z,1018.89
2016-12-16T10:42:47.004Z,1018.88
2016-12-16T10:44:21.298Z,1018.9
2016-12-16T10:45:54.963Z,1018.89
2016-12-16T10:49:05.723Z,1018.94
2016-12-16T10:50:39.329Z,1018.91
2016-12-16T10:52:12.798Z,1018.95
2016-12-16T10:53:47.005Z,1018.9
2016-12-16T10:55:40.329Z,1018.95
2016-12-16T10:57:14.171Z,1018.93
2016-12-16T10:58:47.733Z,1018.86
2016-12-16T11:00:22.234Z,1018.91
2016-12-16T11:01:56.926Z,1018.88
2016-12-16T11:03:30.374Z,1018.88
2016-12-16T11:05:04.151Z,1018.87
2016-12-16T11:06:33.470Z,1018.9
2016-12-16T11:08:07.253Z,1018.89
2016-12-16T11:09:41.039Z,1018.87
2016-12-16T11:11:42.157Z,1018.84
2016-12-16T11:13:17.029Z,1018.86
2016-12-16T11:14:50.430Z,1018.85
2016-12-16T11:16:23.872Z,1018.82
2016-12-16T11:17:57.241Z,1018.79
2016-12-16T11:19:31.271Z,1018.78
2016-12-16T11:21:05.385Z,1018.75
2016-12-16T11:22:39.154Z,1018.75
2016-12-16T11:24:13.245Z,1018.73
2016-12-16T11:25:47.372Z,1018.73
2016-12-16T11:27:51.496Z,1018.68
2016-12-16T11:29:25.276Z,1018.7
2016-12-16T11:30:59.320Z,1018.73
2016-12-16T11:32:33.007Z,1018.7
2016-12-16T11:34:06.663Z,1018.69
2016-12-16T11:35:40.779Z,1018.73
2016-12-16T11:37:34.900Z,1018.65
2016-12-16T11:39:08.573Z,1018.63
2016-12-16T11:40:42.494Z,1018.65
2016-12-16T11:42:16.227Z,1018.64
2016-12-16T11:43:49.893Z,1018.61
2016-12-16T11:45:23.862Z,1018.65
2016-12-16T11:46:57.887Z,1018.63
2016-12-16T11:48:31.682Z,1018.68
2016-12-16T11:50:06.071Z,1018.68
2016-12-16T11:51:39.793Z,1018.73
2016-12-16T11:53:13.517Z,1018.72
2016-12-16T11:54:47.898Z,1018.68
2016-12-16T11:56:41.151Z,1018.72
2016-12-16T11:58:14.519Z,1018.7
2016-12-16T11:59:47.993Z,1018.7
2016-12-16T12:01:22.343Z,1018.7
2016-12-16T12:02:56.490Z,1018.68
2016-12-16T12:04:30.376Z,1018.76
2016-12-16T12:06:03.983Z,1018.76
2016-12-16T12:07:38.019Z,1018.75
2016-12-16T12:09:12.130Z,1018.83
2016-12-16T12:10:46.254Z,1018.89
2016-12-16T12:12:20.015Z,1018.87
2016-12-16T12:13:54.113Z,1018.87
2016-12-16T12:15:48.034Z,1018.9
2016-12-16T12:17:23.336Z,1018.92
2016-12-16T12:18:57.633Z,1018.95
2016-12-16T12:20:31.519Z,1018.9
2016-12-16T12:22:04.948Z,1018.93
2016-12-16T12:23:39.339Z,1018.89
2016-12-16T12:25:13.360Z,1018.93
2016-12-16T12:26:48.281Z,1018.9
2016-12-16T12:28:22.312Z,1018.95
2016-12-16T12:29:56.170Z,1018.94
2016-12-16T12:31:30.451Z,1018.91
2016-12-16T12:33:03.981Z,1018.93
2016-12-16T12:34:37.616Z,1018.93
2016-12-16T12:36:30.873Z,1018.91
2016-12-16T12:38:04.188Z,1018.93
2016-12-16T12:39:38.116Z,1018.98
2016-12-16T12:41:07.971Z,1018.96
2016-12-16T12:42:22.775Z,1018.97
2016-12-16T12:44:15.940Z,1018.96
2016-12-16T12:45:49.300Z,1018.94
2016-12-16T12:47:23.499Z,1018.97
2016-12-16T12:48:57.271Z,1018.95
2016-12-16T12:50:30.882Z,1018.94
2016-12-16T12:52:06.643Z,1018.98
2016-12-16T12:53:40.283Z,1018.96
2016-12-16T12:55:13.944Z,1019.01
2016-12-16T12:56:47.656Z,1019.05
2016-12-16T12:58:21.504Z,1019.08
2016-12-16T12:59:55.146Z,1018.98
2016-12-16T13:01:29.390Z,1019.01
2016-12-16T13:03:24.507Z,1019
2016-12-16T13:04:58.606Z,1019.03
2016-12-16T13:06:34.427Z,1019.01
2016-12-16T13:08:08.620Z,1019.02
2016-12-16T13:09:42.725Z,1019.03
2016-12-16T13:11:42.803Z,1019.03
2016-12-16T13:13:16.833Z,1019.03
2016-12-16T13:14:46.779Z,1019.04
2016-12-16T13:16:00.894Z,1019.07
2016-12-16T13:17:34.909Z,1019.06
2016-12-16T13:19:27.981Z,1019.04
2016-12-16T13:21:01.513Z,1019.08
2016-12-16T13:22:35.294Z,1019.1
2016-12-16T13:24:08.922Z,1019.13
2016-12-16T13:25:43.349Z,1019.08
2016-12-16T13:27:16.724Z,1019.11
2016-12-16T13:28:50.281Z,1019.14
2016-12-16T13:30:24.720Z,1019.15
2016-12-16T13:31:58.402Z,1019.15
2016-12-16T13:33:32.535Z,1019.17
2016-12-16T13:35:06.488Z,1019.23
2016-12-16T13:36:39.852Z,1019.22
2016-12-16T13:38:13.742Z,1019.25
2016-12-16T13:39:42.545Z,1019.2
2016-12-16T13:41:16.140Z,1019.24
2016-12-16T13:42:50.192Z,1019.21
2016-12-16T13:44:23.979Z,1019.22
2016-12-16T13:45:57.433Z,1019.25
2016-12-16T13:47:31.262Z,1019.29
2016-12-16T13:49:04.984Z,1019.27
2016-12-16T13:50:38.766Z,1019.3
2016-12-16T13:52:12.575Z,1019.29
2016-12-16T13:53:45.903Z,1019.36
2016-12-16T13:55:20.313Z,1019.39
2016-12-16T13:56:54.421Z,1019.38
2016-12-16T13:58:27.973Z,1019.4
2016-12-16T14:00:21.168Z,1019.37
2016-12-16T14:01:55.689Z,1019.36
2016-12-16T14:03:29.400Z,1019.38
2016-12-16T14:05:02.850Z,1019.43
2016-12-16T14:06:37.548Z,1019.49
2016-12-16T14:08:11.719Z,1019.48
2016-12-16T14:09:47.332Z,1019.52
2016-12-16T14:11:47.198Z,1019.54
2016-12-16T14:13:20.561Z,1019.52
2016-12-16T14:14:54.524Z,1019.5
2016-12-16T14:16:28.610Z,1019.59
2016-12-16T14:18:02.321Z,1019.58
2016-12-16T14:19:56.772Z,1019.61
2016-12-16T14:21:31.001Z,1019.57
2016-12-16T14:23:04.555Z,1019.63
2016-12-16T14:24:38.072Z,1019.6
2016-12-16T14:26:07.991Z,1019.66
2016-12-16T14:27:43.461Z,1019.65
2016-12-16T14:29:20.306Z,1019.72
2016-12-16T14:30:55.648Z,1019.68
2016-12-16T14:32:29.450Z,1019.73
2016-12-16T14:34:04.142Z,1019.73
2016-12-16T14:35:37.603Z,1019.69
2016-12-16T14:37:13.042Z,1019.75
2016-12-16T14:39:06.908Z,1019.78
2016-12-16T14:40:41.721Z,1019.73
2016-12-16T14:42:16.466Z,1019.83
2016-12-16T14:43:50.415Z,1019.87
2016-12-16T14:45:26.682Z,1019.82
2016-12-16T14:46:55.200Z,1019.85
2016-12-16T14:48:29.026Z,1019.91
2016-12-16T14:50:05.404Z,1019.84
2016-12-16T14:51:59.492Z,1019.87
2016-12-16T14:53:33.195Z,1019.91
2016-12-16T14:55:06.876Z,1019.87
2016-12-16T14:56:41.435Z,1019.91
2016-12-16T14:58:15.866Z,1019.9
2016-12-16T14:59:50.222Z,1019.93
2016-12-16T15:01:24.188Z,1019.98
2016-12-16T15:02:58.250Z,1019.98
2016-12-16T15:04:26.456Z,1019.99
2016-12-16T15:06:01.980Z,1020.09
2016-12-16T15:07:36.289Z,1020.08
2016-12-16T15:09:10.244Z,1020.08
2016-12-16T15:10:44.488Z,1020.01
2016-12-16T15:12:18.625Z,1020.07
2016-12-16T15:13:52.470Z,1020.06
2016-12-16T15:15:26.098Z,1020.08
2016-12-16T15:16:54.704Z,1020.06
2016-12-16T15:18:29.502Z,1020.07
2016-12-16T15:20:03.402Z,1020.1
2016-12-16T15:21:36.969Z,1020.11
2016-12-16T15:23:11.315Z,1020.09
2016-12-16T15:25:04.307Z,1020.15
2016-12-16T15:26:38.019Z,1020.17
2016-12-16T15:28:11.779Z,1020.14
2016-12-16T15:29:46.427Z,1020.15
2016-12-16T15:31:20.498Z,1020.13
2016-12-16T15:32:53.936Z,1020.22
2016-12-16T15:34:28.494Z,1020.27
2016-12-16T15:36:03.726Z,1020.27
2016-12-16T15:37:37.488Z,1020.31
2016-12-16T15:39:11.126Z,1020.36
2016-12-16T15:40:44.977Z,1020.41
2016-12-16T15:42:38.380Z,1020.45
2016-12-16T15:44:11.926Z,1020.49
2016-12-16T15:45:47.070Z,1020.48
2016-12-16T15:47:49.114Z,1020.49
2016-12-16T15:49:23.547Z,1020.58
2016-12-16T15:50:56.965Z,1020.6
2016-12-16T15:52:31.398Z,1020.61
2016-12-16T15:54:05.185Z,1020.63
2016-12-16T15:55:38.562Z,1020.69
2016-12-16T15:57:12.283Z,1020.68
2016-12-16T15:58:46.324Z,1020.71
2016-12-16T16:00:44.099Z,1020.82
2016-12-16T16:02:17.603Z,1020.79
2016-12-16T16:03:51.338Z,1020.82
2016-12-16T16:05:26.248Z,1020.87
2016-12-16T16:06:59.997Z,1020.88
2016-12-16T16:08:33.862Z,1020.89
2016-12-16T16:10:08.137Z,1020.96
2016-12-16T16:11:37.650Z,1020.98
2016-12-16T16:13:12.135Z,1021.01
2016-12-16T16:14:46.492Z,1020.99
2016-12-16T16:16:19.993Z,1021.04
2016-12-16T16:17:54.389Z,1021.07
2016-12-16T16:19:27.911Z,1021.03
2016-12-16T16:21:01.875Z,1021
2016-12-16T16:22:54.887Z,1021.04
2016-12-16T16:24:31.518Z,1021.12
2016-12-16T16:26:05.082Z,1021.08
2016-12-16T16:27:39.313Z,1021.11
2016-12-16T16:29:12.592Z,1021.15
2016-12-16T16:30:47.008Z,1021.21
2016-12-16T16:32:20.527Z,1021.2
2016-12-16T16:33:54.840Z,1021.17
2016-12-16T16:35:28.560Z,1021.18
2016-12-16T16:37:01.957Z,1021.21
2016-12-16T16:38:55.358Z,1021.21
2016-12-16T16:40:29.798Z,1021.21
2016-12-16T16:42:05.192Z,1021.25
2016-12-16T16:43:38.930Z,1021.24
2016-12-16T16:45:12.671Z,1021.27
2016-12-16T16:46:47.234Z,1021.28
2016-12-16T16:48:20.811Z,1021.26
2016-12-16T16:49:54.764Z,1021.28
2016-12-16T16:51:28.812Z,1021.26
2016-12-16T16:53:02.660Z,1021.27
2016-12-16T16:54:57.077Z,1021.23
2016-12-16T16:56:30.884Z,1021.29
2016-12-16T16:58:04.805Z,1021.3
2016-12-16T16:59:38.763Z,1021.28
2016-12-16T17:01:12.500Z,1021.32
2016-12-16T17:02:46.264Z,1021.33
2016-12-16T17:04:20.091Z,1021.31
2016-12-16T17:05:54.755Z,1021.26
2016-12-16T17:07:30.070Z,1021.35
2016-12-16T17:09:23.754Z,1021.33
2016-12-16T17:10:57.746Z,1021.32
2016-12-16T17:12:31.768Z,1021.29
2016-12-16T17:14:05.628Z,1021.34
2016-12-16T17:15:39.881Z,1021.33
2016-12-16T17:17:14.130Z,1021.36
2016-12-16T17:18:50.185Z,1021.4
2016-12-16T17:20:45.981Z,1021.45
2016-12-16T17:22:20.364Z,1021.47
2016-12-16T17:23:54.507Z,1021.51
2016-12-16T17:25:28.083Z,1021.52
2016-12-16T17:27:04.291Z,1021.53
2016-12-16T17:29:04.372Z,1021.48
2016-12-16T17:30:38.828Z,1021.55
2016-12-16T17:32:12.440Z,1021.58
2016-12-16T17:33:46.568Z,1021.5
2016-12-16T17:35:21.026Z,1021.6
2016-12-16T17:36:55.583Z,1021.6
2016-12-16T17:38:52.424Z,1021.6
2016-12-16T17:40:27.019Z,1021.61
2016-12-16T17:42:01.267Z,1021.65
2016-12-16T17:43:29.897Z,1021.65
2016-12-16T17:45:03.384Z,1021.65
2016-12-16T17:46:37.308Z,1021.66
2016-12-16T17:48:11.603Z,1021.67
2016-12-16T17:49:45.215Z,1021.74
2016-12-16T17:51:19.149Z,1021.78
2016-12-16T17:52:52.632Z,1021.81
2016-12-16T17:54:26.706Z,1021.87
2016-12-16T17:56:00.827Z,1021.86
2016-12-16T17:57:35.523Z,1021.8
2016-12-16T17:59:09.297Z,1021.81
2016-12-16T18:01:02.795Z,1021.8
2016-12-16T18:02:36.262Z,1021.79
2016-12-16T18:04:12.486Z,1021.8
2016-12-16T18:05:47.380Z,1021.87
2016-12-16T18:07:21.532Z,1021.85
2016-12-16T18:09:52.680Z,1021.87
2016-12-16T18:11:27.043Z,1021.88
2016-12-16T18:13:02.034Z,1021.89
2016-12-16T18:14:35.980Z,1021.86
2016-12-16T18:16:09.824Z,1021.87
2016-12-16T18:17:45.202Z,1021.85
2016-12-16T18:19:14.972Z,1021.87
2016-12-16T18:20:48.523Z,1021.88
2016-12-16T18:22:23.528Z,1021.9
2016-12-16T18:24:19.351Z,1021.9
2016-12-16T18:25:53.507Z,1021.97
2016-12-16T18:27:27.029Z,1021.96
2016-12-16T18:29:00.662Z,1021.92
2016-12-16T18:30:34.363Z,1021.96
2016-12-16T18:32:08.032Z,1021.98
2016-12-16T18:33:37.068Z,1022
2016-12-16T18:35:10.724Z,1022
2016-12-16T18:36:45.361Z,1022.07
2016-12-16T18:38:19.565Z,1022.01
2016-12-16T18:39:53.076Z,1022.04
2016-12-16T18:41:22.356Z,1022.02
2016-12-16T18:42:55.802Z,1022.04
2016-12-16T18:44:31.341Z,1022
2016-12-16T18:46:03.229Z,1022.07
2016-12-16T18:47:38.113Z,1022.06
2016-12-16T18:49:14.790Z,1022.13
2016-12-16T18:51:09.405Z,1022.18
2016-12-16T18:52:43.050Z,1022.16
2016-12-16T18:54:17.966Z,1022.21
2016-12-16T18:55:52.672Z,1022.18
2016-12-16T18:57:26.299Z,1022.2
2016-12-16T18:59:00.075Z,1022.22
2016-12-16T19:00:33.899Z,1022.26
2016-12-16T19:02:07.778Z,1022.26
2016-12-16T19:03:42.464Z,1022.27
2016-12-16T19:05:16.408Z,1022.33
2016-12-16T19:07:09.891Z,1022.3
2016-12-16T19:08:45.374Z,1022.32
2016-12-16T19:10:18.779Z,1022.3
2016-12-16T19:11:52.712Z,1022.35
2016-12-16T19:13:26.438Z,1022.34
2016-12-16T19:14:55.414Z,1022.32
2016-12-16T19:16:25.214Z,1022.31
2016-12-16T19:17:39.724Z,1022.32
2016-12-16T19:19:13.089Z,1022.32
2016-12-16T19:21:06.546Z,1022.29
2016-12-16T19:22:40.211Z,1022.32
2016-12-16T19:24:14.706Z,1022.3